Time;durP1;ratioP1;P1;durP2;ratioP2;P2;SDS_P1;SDS_P2;PMS_P1;PMS_P2;Temp;Humidity;BMP_temperature;BMP_pressure;BME280_temperature;BME280_humidity;BME280_pressure;Samples;Min_cycle;Max_cycle;Signal;HPM_P1;HPM_P2
2021/06/30 00:02:17;;;;;;;1.27;1.10;;;27.00;54.70;;;;;;4918303;29;20460;-86
2021/06/30 00:04:46;;;;;;;2.13;1.27;;;27.00;54.70;;;;;;4934591;29;20424;-86
2021/06/30 00:07:15;;;;;;;1.33;1.23;;;27.00;54.70;;;;;;4934191;29;20424;-86
2021/06/30 00:09:42;;;;;;;1.33;1.10;;;27.00;54.70;;;;;;4934304;29;20442;-86
2021/06/30 00:12:09;;;;;;;1.47;0.90;;;27.00;54.80;;;;;;4933772;29;20459;-85
2021/06/30 00:14:38;;;;;;;1.50;1.20;;;27.00;54.80;;;;;;4931225;29;20467;-86
2021/06/30 00:17:08;;;;;;;2.90;0.90;;;27.00;54.70;;;;;;4934057;29;20432;-85
2021/06/30 00:19:42;;;;;;;1.67;1.00;;;27.00;54.70;;;;;;4935027;29;20459;-85
2021/06/30 00:22:22;;;;;;;1.40;1.00;;;27.00;54.80;;;;;;4933690;29;20427;-85
2021/06/30 00:24:54;;;;;;;1.27;1.17;;;27.00;54.80;;;;;;4934385;29;20422;-85
2021/06/30 00:27:27;;;;;;;1.30;1.13;;;27.00;54.80;;;;;;4918167;29;20520;-85
2021/06/30 00:30:22;;;;;;;0.90;0.80;;;27.00;54.80;;;;;;4933405;29;20445;-85
2021/06/30 00:32:54;;;;;;;1.00;0.90;;;27.00;54.80;;;;;;4933655;29;20428;-86
2021/06/30 00:35:21;;;;;;;1.80;1.07;;;27.00;54.90;;;;;;4934063;29;20463;-85
2021/06/30 00:37:55;;;;;;;1.20;1.00;;;26.90;54.90;;;;;;4932952;29;20411;-85
2021/06/30 00:40:23;;;;;;;1.20;1.00;;;26.90;54.90;;;;;;4933615;29;20431;-85
2021/06/30 00:43:00;;;;;;;;;;;;;;;;;;;;;
2021/06/30 00:45:29;;;;;;;3.43;1.07;;;26.90;54.80;;;;;;4934611;29;20435;-85
2021/06/30 00:47:57;;;;;;;1.30;1.20;;;27.00;54.90;;;;;;4933266;29;20456;-85
2021/06/30 00:50:27;;;;;;;1.40;1.20;;;26.90;54.90;;;;;;4934295;29;20471;-85
2021/06/30 00:53:10;;;;;;;1.20;0.90;;;26.90;54.90;;;;;;4918397;29;20436;-85
2021/06/30 00:55:43;;;;;;;1.80;1.00;;;26.90;54.90;;;;;;4918564;29;20471;-85
2021/06/30 00:58:17;;;;;;;1.10;0.90;;;26.90;54.90;;;;;;4934333;29;20419;-85
2021/06/30 01:00:48;;;;;;;1.10;0.90;;;26.90;54.90;;;;;;4901783;29;20460;-85
2021/06/30 01:03:15;;;;;;;1.13;1.00;;;26.90;55.00;;;;;;4923810;29;20492;-85
2021/06/30 01:05:45;;;;;;;1.10;1.00;;;26.90;55.00;;;;;;4927125;29;20498;-85
2021/06/30 01:08:43;;;;;;;;;;;;;;;;;;;;;
2021/06/30 01:11:52;;;;;;;1.30;1.00;;;26.90;54.90;;;;;;4931404;29;20427;-85
2021/06/30 01:17:16;;;;;;;1.53;1.20;;;26.90;55.00;;;;;;4932244;29;20431;-85
2021/06/30 01:19:42;;;;;;;1.10;0.90;;;26.90;55.00;;;;;;4933518;29;20431;-85
2021/06/30 01:22:11;;;;;;;1.47;1.27;;;26.90;55.00;;;;;;4929698;29;20421;-85
2021/06/30 01:24:38;;;;;;;1.07;0.87;;;26.90;55.00;;;;;;4914386;29;20466;-86
2021/06/30 01:27:06;;;;;;;1.40;1.13;;;26.90;55.00;;;;;;4923140;29;20502;-85
2021/06/30 01:29:40;;;;;;;1.30;1.10;;;26.90;55.00;;;;;;4965377;28;20443;-85
2021/06/30 01:32:08;;;;;;;1.40;1.20;;;26.90;54.60;;;;;;4935888;29;20400;-85
2021/06/30 01:34:34;;;;;;;1.87;1.37;;;26.90;55.00;;;;;;4923821;29;20620;-85
2021/06/30 01:37:12;;;;;;;1.13;0.93;;;26.90;55.00;;;;;;4925874;29;20425;-85
2021/06/30 01:39:40;;;;;;;2.30;1.27;;;26.90;55.00;;;;;;4916232;29;20974;-85
2021/06/30 01:42:14;;;;;;;2.33;1.33;;;26.80;54.90;;;;;;4915462;29;20492;-85
2021/06/30 01:44:41;;;;;;;1.40;1.20;;;26.90;55.00;;;;;;4915938;29;20439;-85
2021/06/30 01:47:08;;;;;;;1.47;1.20;;;26.90;55.00;;;;;;4932353;29;20500;-85
2021/06/30 01:49:40;;;;;;;2.40;1.10;;;26.90;55.00;;;;;;4967463;28;20423;-84
2021/06/30 01:52:07;;;;;;;1.37;1.20;;;26.90;55.00;;;;;;4921562;29;20424;-84
2021/06/30 01:54:36;;;;;;;1.50;1.10;;;26.80;55.00;;;;;;4919661;29;20479;-84
2021/06/30 01:57:09;;;;;;;1.53;1.13;;;26.90;55.00;;;;;;4966784;28;20450;-84
2021/06/30 01:59:40;;;;;;;2.23;1.40;;;26.90;55.00;;;;;;4936520;29;20862;-84
2021/06/30 02:02:11;;;;;;;1.20;1.10;;;26.90;55.00;;;;;;4919840;29;20428;-84
2021/06/30 02:04:44;;;;;;;1.53;1.43;;;26.80;55.00;;;;;;4920864;29;20416;-84
2021/06/30 02:07:13;;;;;;;1.50;1.20;;;26.80;55.00;;;;;;4951797;29;20431;-84
2021/06/30 02:09:45;;;;;;;1.40;1.20;;;26.80;55.00;;;;;;4919166;29;20435;-84
2021/06/30 02:12:16;;;;;;;1.50;1.23;;;26.80;55.00;;;;;;4966528;29;20491;-84
2021/06/30 02:14:44;;;;;;;1.37;1.27;;;26.80;55.00;;;;;;4955011;29;20470;-84
2021/06/30 02:17:18;;;;;;;2.03;1.10;;;26.80;55.00;;;;;;4934781;29;20451;-85
2021/06/30 02:19:51;;;;;;;1.20;1.10;;;26.80;55.00;;;;;;4915633;29;20440;-84
2021/06/30 02:22:21;;;;;;;1.37;1.00;;;26.80;55.00;;;;;;4915476;29;20970;-85
2021/06/30 02:25:00;;;;;;;1.40;1.23;;;26.80;55.00;;;;;;4919700;29;20410;-85
2021/06/30 02:27:27;;;;;;;1.00;0.90;;;26.80;55.10;;;;;;4935525;29;20428;-84
2021/06/30 02:30:03;;;;;;;1.23;1.13;;;26.80;55.10;;;;;;4920174;29;20413;-84
2021/06/30 02:32:31;;;;;;;2.40;1.30;;;26.80;55.20;;;;;;4919283;29;20499;-83
2021/06/30 02:35:04;;;;;;;1.43;1.20;;;26.80;55.10;;;;;;4920075;29;20464;-84
2021/06/30 02:37:32;;;;;;;2.10;1.10;;;26.70;55.10;;;;;;4904904;29;20410;-84
2021/06/30 02:40:00;;;;;;;1.80;1.00;;;26.70;55.10;;;;;;4919057;29;20431;-83
2021/06/30 02:42:26;;;;;;;1.20;1.10;;;26.70;55.30;;;;;;4919000;29;20904;-84
2021/06/30 02:44:54;;;;;;;1.30;1.20;;;26.70;55.20;;;;;;4919919;29;20433;-84
2021/06/30 02:47:24;;;;;;;1.30;1.13;;;26.80;55.20;;;;;;4918609;29;20448;-84
2021/06/30 02:50:03;;;;;;;1.40;1.30;;;26.80;55.20;;;;;;4919303;29;20408;-83
2021/06/30 02:52:31;;;;;;;1.73;1.20;;;26.80;55.20;;;;;;4905342;29;20444;-83
2021/06/30 02:55:02;;;;;;;1.40;1.30;;;26.70;55.10;;;;;;4904117;29;20460;-83
2021/06/30 02:57:30;;;;;;;1.40;1.30;;;26.70;55.10;;;;;;4904295;29;20943;-84
2021/06/30 03:00:01;;;;;;;1.50;1.30;;;26.70;55.10;;;;;;4918784;29;20409;-84
2021/06/30 03:02:36;;;;;;;2.40;1.70;;;26.70;55.10;;;;;;4920247;29;20389;-84
2021/06/30 03:05:06;;;;;;;1.53;1.20;;;26.70;55.10;;;;;;4918571;29;20432;-83
2021/06/30 03:07:38;;;;;;;2.10;1.40;;;26.70;55.20;;;;;;4918809;29;20401;-84
2021/06/30 03:10:13;;;;;;;1.30;1.20;;;26.70;55.20;;;;;;4918208;29;20829;-84
2021/06/30 03:12:41;;;;;;;1.40;1.10;;;26.70;55.20;;;;;;4918819;29;20427;-83
2021/06/30 03:15:11;;;;;;;1.73;1.23;;;26.70;55.20;;;;;;4903266;29;20480;-83
2021/06/30 03:17:40;;;;;;;2.83;1.30;;;26.70;55.20;;;;;;4919652;29;20424;-83
2021/06/30 03:20:15;;;;;;;1.80;1.07;;;26.70;55.30;;;;;;4919133;29;20524;-84
2021/06/30 03:22:54;;;;;;;1.23;1.13;;;26.60;55.20;;;;;;4919886;29;20423;-83
2021/06/30 03:25:28;;;;;;;1.60;1.23;;;26.70;55.30;;;;;;4918328;29;20424;-83
2021/06/30 03:34:06;;;;;;;1.53;1.13;;;26.70;55.20;;;;;;4880767;29;20398;-85
2021/06/30 03:36:35;;;;;;;1.73;1.27;;;26.60;55.30;;;;;;4863274;29;20515;-84
2021/06/30 03:39:09;;;;;;;1.30;1.20;;;26.60;55.30;;;;;;4864578;29;20426;-84
2021/06/30 03:41:40;;;;;;;1.40;1.30;;;26.70;55.30;;;;;;4864722;29;20438;-83
2021/06/30 03:44:07;;;;;;;2.33;1.30;;;26.70;55.40;;;;;;4864534;29;20430;-83
2021/06/30 03:46:35;;;;;;;1.37;1.27;;;26.70;55.30;;;;;;4865040;29;20446;-84
2021/06/30 03:49:09;;;;;;;1.73;1.20;;;26.70;55.30;;;;;;4864509;29;20611;-84
2021/06/30 03:51:37;;;;;;;5.50;1.40;;;26.70;55.30;;;;;;4864667;29;20426;-84
2021/06/30 03:54:08;;;;;;;1.23;0.90;;;26.70;55.30;;;;;;4864372;29;20451;-84
2021/06/30 03:56:36;;;;;;;2.80;1.40;;;26.70;55.30;;;;;;4864369;29;20604;-84
2021/06/30 03:59:07;;;;;;;1.50;1.10;;;26.60;55.30;;;;;;4864207;29;20431;-84
2021/06/30 04:02:13;;;;;;;2.40;1.10;;;26.70;55.30;;;;;;4881219;29;20427;-84
2021/06/30 04:04:57;;;;;;;1.30;1.00;;;26.70;55.30;;;;;;4883897;29;20414;-85
2021/06/30 04:07:43;;;;;;;1.23;1.13;;;26.60;55.30;;;;;;4889113;29;20408;-86
2021/06/30 04:10:42;;;;;;;1.50;1.40;;;26.60;55.30;;;;;;4922385;29;20436;-86
2021/06/30 04:16:45;;;;;;;1.57;1.40;;;26.60;55.20;;;;;;4923391;29;20416;-85
2021/06/30 04:22:36;;;;;;;1.93;1.10;;;26.60;55.30;;;;;;4917463;29;20414;-85
2021/06/30 04:25:07;;;;;;;1.90;1.20;;;26.60;55.40;;;;;;4916491;29;20428;-85
2021/06/30 04:27:35;;;;;;;1.50;1.40;;;26.60;55.40;;;;;;4917196;29;20420;-84
2021/06/30 04:30:08;;;;;;;2.03;1.30;;;26.60;55.40;;;;;;4916987;29;20421;-84
2021/06/30 04:32:54;;;;;;;;;;;;;;;;;;;;;
2021/06/30 04:35:26;;;;;;;3.90;1.70;;;26.60;55.40;;;;;;4917216;29;20480;-84
2021/06/30 04:37:53;;;;;;;1.20;1.10;;;26.60;55.40;;;;;;4915643;29;20449;-84
2021/06/30 04:40:25;;;;;;;1.30;1.20;;;26.60;55.40;;;;;;4915878;29;20413;-85
2021/06/30 04:42:54;;;;;;;2.43;1.50;;;26.60;55.40;;;;;;4915381;29;20446;-85
2021/06/30 04:45:25;;;;;;;3.33;2.00;;;26.60;55.30;;;;;;4915850;29;20497;-85
2021/06/30 04:47:52;;;;;;;1.70;1.43;;;26.60;55.30;;;;;;4916725;29;20464;-84
2021/06/30 04:50:20;;;;;;;1.30;1.20;;;26.60;55.30;;;;;;4917638;29;20523;-84
2021/06/30 04:52:56;;;;;;;3.00;1.60;;;26.60;55.30;;;;;;4918345;29;20429;-84
2021/06/30 04:55:25;;;;;;;1.27;1.17;;;26.60;55.30;;;;;;4917923;29;20452;-85
2021/06/30 04:58:08;;;;;;;1.63;1.53;;;26.60;55.30;;;;;;4918407;29;20439;-84
2021/06/30 05:00:36;;;;;;;1.50;1.40;;;26.60;55.20;;;;;;4918100;29;20417;-85
2021/06/30 05:03:15;;;;;;;1.57;1.30;;;26.60;55.30;;;;;;4916244;29;20401;-83
2021/06/30 05:05:44;;;;;;;1.60;1.50;;;26.60;55.30;;;;;;4898362;29;20429;-85
2021/06/30 05:08:11;;;;;;;1.97;1.20;;;26.60;55.30;;;;;;4917267;29;20765;-84
2021/06/30 05:10:46;;;;;;;1.40;1.27;;;26.60;55.20;;;;;;4917105;29;20938;-84
2021/06/30 05:13:43;;;;;;;1.77;1.40;;;26.60;55.20;;;;;;4916993;29;20424;-84
2021/06/30 05:16:13;;;;;;;1.50;1.20;;;26.60;55.20;;;;;;4917438;29;20557;-84
2021/06/30 05:18:56;;;;;;;2.23;1.50;;;26.60;55.20;;;;;;4918793;29;20441;-84
2021/06/30 05:21:48;;;;;;;1.37;1.27;;;26.60;55.20;;;;;;4918580;29;20465;-85
2021/06/30 05:24:39;;;;;;;1.60;1.30;;;26.60;55.20;;;;;;4917880;29;20409;-84
2021/06/30 05:27:41;;;;;;;1.50;1.40;;;26.60;55.20;;;;;;4917712;29;20492;-84
2021/06/30 05:33:41;;;;;;;1.77;1.40;;;26.60;55.30;;;;;;4917551;29;20377;-84
2021/06/30 05:43:36;;;;;;;;;;;;;;;;;;;;;
2021/06/30 05:49:40;;;;;;;;;;;;;;;;;;;;;
2021/06/30 05:52:38;;;;;;;;;;;;;;;;;;;;;
2021/06/30 05:56:02;;;;;;;1.47;1.37;;;26.60;55.30;;;;;;4825157;29;20495;-84
2021/06/30 05:58:42;;;;;;;1.40;1.30;;;26.60;55.30;;;;;;4825162;29;20417;-83
2021/06/30 06:01:39;;;;;;;1.80;1.40;;;26.60;55.30;;;;;;4812276;29;20432;-83
2021/06/30 06:04:35;;;;;;;2.30;1.10;;;26.60;55.30;;;;;;4828041;29;20433;-84
2021/06/30 06:07:12;;;;;;;2.27;1.60;;;26.60;55.30;;;;;;4777221;30;20508;-83
2021/06/30 06:10:10;;;;;;;1.73;1.27;;;26.60;55.20;;;;;;4777472;30;20433;-83
2021/06/30 06:13:01;;;;;;;1.40;1.30;;;26.70;55.20;;;;;;4792054;30;20533;-83
2021/06/30 06:15:51;;;;;;;1.47;1.10;;;26.70;55.20;;;;;;4794700;30;20476;-81
2021/06/30 06:18:24;;;;;;;2.50;1.50;;;26.60;55.20;;;;;;4807738;29;20445;-82
2021/06/30 06:20:54;;;;;;;1.97;1.80;;;26.70;55.30;;;;;;4809173;30;20421;-83
2021/06/30 06:23:21;;;;;;;1.20;1.10;;;26.70;55.30;;;;;;4844468;29;20431;-83
2021/06/30 06:25:49;;;;;;;2.10;1.63;;;26.70;55.30;;;;;;4862514;29;20439;-82
2021/06/30 06:28:15;;;;;;;1.50;1.40;;;26.70;55.20;;;;;;4845301;29;20468;-83
2021/06/30 06:30:41;;;;;;;2.00;1.40;;;26.80;55.30;;;;;;4861940;29;20435;-83
2021/06/30 06:33:08;;;;;;;2.50;1.40;;;26.80;55.20;;;;;;4862460;29;20412;-83
2021/06/30 06:35:49;;;;;;;1.70;1.10;;;26.80;55.20;;;;;;4862080;29;20562;-83
2021/06/30 06:38:33;;;;;;;3.70;1.40;;;26.90;55.20;;;;;;4861808;29;20415;-83
2021/06/30 06:40:59;;;;;;;1.47;1.10;;;26.90;55.20;;;;;;4863500;29;20420;-83
2021/06/30 06:43:35;;;;;;;1.90;1.20;;;26.90;55.20;;;;;;4847712;29;20538;-83
2021/06/30 06:46:05;;;;;;;1.67;1.37;;;26.90;55.10;;;;;;4864530;29;20464;-82
2021/06/30 06:48:31;;;;;;;1.50;1.23;;;27.00;55.20;;;;;;4864177;29;20423;-82
2021/06/30 06:54:16;;;;;;;2.10;1.30;;;27.00;55.20;;;;;;4826588;29;20491;-82
2021/06/30 06:56:46;;;;;;;1.63;1.20;;;27.00;55.20;;;;;;4848024;29;20509;-83
2021/06/30 06:59:18;;;;;;;1.60;1.30;;;27.00;55.20;;;;;;4861917;29;20479;-83
2021/06/30 07:01:45;;;;;;;1.37;1.27;;;27.00;55.10;;;;;;4848222;29;20428;-84
2021/06/30 07:04:23;;;;;;;3.10;1.53;;;27.00;55.10;;;;;;4861851;29;20973;-83
2021/06/30 07:06:53;;;;;;;2.43;1.60;;;27.10;55.20;;;;;;4859524;29;20423;-83
2021/06/30 07:09:30;;;;;;;2.07;1.63;;;27.10;55.10;;;;;;4861416;29;20428;-83
2021/06/30 07:12:02;;;;;;;1.77;1.50;;;27.10;55.20;;;;;;4858277;29;20516;-83
2021/06/30 07:14:30;;;;;;;1.30;1.20;;;27.10;55.10;;;;;;4858263;29;20412;-83
2021/06/30 07:17:05;;;;;;;1.37;1.20;;;27.10;55.10;;;;;;4858318;29;20442;-84
2021/06/30 07:19:37;;;;;;;2.63;1.40;;;27.10;55.10;;;;;;4843154;29;20447;-84
2021/06/30 07:22:09;;;;;;;1.17;1.07;;;27.10;55.10;;;;;;4857956;29;20431;-83
2021/06/30 07:28:07;;;;;;;1.40;1.10;;;27.10;55.00;;;;;;4826988;29;20416;-84
2021/06/30 07:30:35;;;;;;;1.33;1.10;;;27.10;55.10;;;;;;4858807;29;20427;-83
2021/06/30 07:33:03;;;;;;;1.50;1.40;;;27.10;55.00;;;;;;4843205;29;20419;-83
2021/06/30 07:35:45;;;;;;;2.53;1.20;;;27.10;55.00;;;;;;4858076;29;20471;-83
2021/06/30 07:45:09;;;;;;;1.87;1.30;;;27.20;55.10;;;;;;4821926;29;20389;-83
2021/06/30 07:47:53;;;;;;;;;;;;;;;;;;;;;
2021/06/30 07:50:23;;;;;;;1.20;1.10;;;27.20;55.10;;;;;;4821332;29;20465;-83
2021/06/30 07:52:49;;;;;;;1.40;1.30;;;27.10;55.10;;;;;;4807326;29;20429;-83
2021/06/30 07:55:20;;;;;;;1.23;1.13;;;27.10;55.00;;;;;;4806798;29;20489;-83
2021/06/30 07:57:54;;;;;;;2.07;1.17;;;27.20;55.10;;;;;;4821529;29;20429;-84
2021/06/30 08:00:21;;;;;;;1.20;1.10;;;27.20;55.00;;;;;;4806666;29;20802;-84
2021/06/30 08:02:53;;;;;;;2.40;1.17;;;27.20;55.00;;;;;;4821531;29;20436;-84
2021/06/30 08:05:18;;;;;;;1.97;1.57;;;27.20;55.00;;;;;;4822391;29;20434;-84
2021/06/30 08:07:49;;;;;;;1.30;1.20;;;27.20;55.00;;;;;;4821987;29;20436;-84
2021/06/30 08:10:15;;;;;;;1.47;1.33;;;27.30;55.00;;;;;;4807298;29;20441;-84
2021/06/30 08:12:41;;;;;;;1.47;1.37;;;27.20;55.00;;;;;;4806684;29;20433;-84
2021/06/30 08:28:25;;;;;;;2.97;1.57;;;27.30;55.00;;;;;;4824058;29;20412;-83
2021/06/30 08:30:59;;;;;;;1.20;1.10;;;27.20;55.00;;;;;;4823253;29;20433;-83
2021/06/30 08:33:36;;;;;;;1.57;1.00;;;27.30;55.00;;;;;;4824868;29;20429;-83
2021/06/30 08:36:05;;;;;;;1.40;1.30;;;27.30;55.00;;;;;;4824261;29;20464;-83
2021/06/30 08:38:36;;;;;;;1.97;1.37;;;27.30;55.00;;;;;;4823390;29;20425;-83
2021/06/30 08:47:15;;;;;;;1.70;1.20;;;27.30;54.90;;;;;;4823427;29;20393;-83
2021/06/30 08:50:06;;;;;;;1.17;1.07;;;27.30;55.00;;;;;;4822312;29;20511;-83
2021/06/30 08:53:20;;;;;;;2.10;1.10;;;27.30;54.90;;;;;;4822833;29;20460;-83
2021/06/30 08:59:43;;;;;;;1.27;1.17;;;27.30;54.90;;;;;;4825390;29;20460;-84
2021/06/30 09:02:58;;;;;;;1.20;1.07;;;27.30;54.90;;;;;;4787935;30;20460;-85
2021/06/30 09:12:08;;;;;;;1.50;1.10;;;27.30;54.90;;;;;;4735423;30;20429;-84
2021/06/30 09:14:39;;;;;;;1.67;1.30;;;27.30;54.90;;;;;;4756872;30;20487;-84
2021/06/30 09:18:03;;;;;;;;;;;;;;;;;;;;;
2021/06/30 09:31:21;;;;;;;1.30;1.20;;;27.30;54.80;;;;;;4788868;30;20467;-84
2021/06/30 09:34:42;;;;;;;1.27;1.17;;;27.30;54.80;;;;;;4734586;30;20410;-84
2021/06/30 09:41:06;;;;;;;1.50;1.20;;;27.30;54.80;;;;;;4793343;30;20422;-84
2021/06/30 09:51:39;;;;;;;1.70;1.10;;;27.30;54.70;;;;;;4734847;30;20546;-84
2021/06/30 09:54:17;;;;;;;1.10;1.00;;;27.30;54.80;;;;;;4734253;30;20457;-84
2021/06/30 10:01:45;;;;;;;1.67;1.20;;;27.30;54.70;;;;;;4733439;30;20416;-84
2021/06/30 10:04:31;;;;;;;;;;;;;;;;;;;;;
2021/06/30 10:28:16;;;;;;;1.00;0.90;;;27.30;54.80;;;;;;4805258;30;20422;-85
2021/06/30 10:38:02;;;;;;;2.50;1.50;;;27.20;54.70;;;;;;4799494;30;20453;-85
2021/06/30 10:40:34;;;;;;;2.47;1.40;;;27.20;54.80;;;;;;4785868;30;20499;-85
2021/06/30 11:19:19;;;;;;;33.17;15.10;;;27.00;54.50;;;;;;4873221;29;20420;-82
2021/06/30 11:41:26;;;;;;;24.40;10.30;;;27.00;54.60;;;;;;4861306;29;20374;-88
2021/06/30 12:05:02;;;;;;;;;;;;;;;;;;;;;
2021/06/30 12:11:11;;;;;;;10.17;4.80;;;27.00;54.60;;;;;;4778552;29;20414;-86
2021/06/30 12:17:19;;;;;;;10.60;5.90;;;27.00;54.60;;;;;;4783045;30;20477;-86
2021/06/30 12:27:25;;;;;;;;;;;;;;;;;;;;;
2021/06/30 12:37:53;;;;;;;;;;;;;;;;;;;;;
2021/06/30 12:43:44;;;;;;;10.57;5.13;;;26.90;54.00;;;;;;4695225;30;20403;-86
2021/06/30 13:04:07;;;;;;;6.40;3.50;;;26.90;54.10;;;;;;4746815;30;20932;-86
2021/06/30 13:07:44;;;;;;;;;;;;;;;;;;;;;
2021/06/30 13:10:29;;;;;;;6.10;3.13;;;26.90;54.20;;;;;;4689346;30;20541;-85
2021/06/30 13:13:13;;;;;;;6.70;3.50;;;26.90;54.20;;;;;;4696979;30;20427;-85
2021/06/30 13:15:42;;;;;;;14.57;5.40;;;26.90;54.20;;;;;;4696223;30;20475;-84
2021/06/30 13:18:15;;;;;;;6.17;3.90;;;26.90;54.20;;;;;;4696373;30;20497;-84
2021/06/30 13:21:03;;;;;;;7.17;4.20;;;27.00;54.30;;;;;;4696722;30;20435;-85
2021/06/30 13:24:30;;;;;;;;;;;;;;;;;;;;;
2021/06/30 13:27:35;;;;;;;8.87;4.00;;;27.10;54.30;;;;;;4758312;30;20455;-84
2021/06/30 13:43:36;;;;;;;6.27;3.27;;;27.10;54.20;;;;;;4827568;29;20405;-85
2021/06/30 13:53:30;;;;;;;;;;;;;;;;;;;;;
2021/06/30 14:02:56;;;;;;;4.10;2.60;;;27.20;54.00;;;;;;4784809;30;20441;-85
2021/06/30 14:12:16;;;;;;;6.37;2.43;;;27.20;53.90;;;;;;4784133;29;20394;-85
2021/06/30 14:15:13;;;;;;;3.67;2.30;;;27.20;54.00;;;;;;4768969;30;20533;-85
2021/06/30 14:21:09;;;;;;;;;;;;;;;;;;;;;
2021/06/30 14:24:17;;;;;;;3.50;1.87;;;27.20;53.90;;;;;;4768930;30;20456;-84
2021/06/30 14:54:12;;;;;;;3.50;1.60;;;27.20;53.70;;;;;;4762093;30;20938;-83
2021/06/30 14:56:48;;;;;;;2.40;1.40;;;27.20;53.70;;;;;;4768965;30;20479;-83
2021/06/30 14:59:23;;;;;;;2.07;1.60;;;27.30;53.80;;;;;;4753880;30;20541;-83
2021/06/30 15:01:54;;;;;;;1.47;1.37;;;27.20;53.60;;;;;;4753709;30;20829;-85
2021/06/30 15:04:24;;;;;;;2.47;1.60;;;27.20;53.60;;;;;;4768576;30;20456;-85
2021/06/30 15:06:56;;;;;;;2.30;1.40;;;27.30;53.60;;;;;;4768927;30;20428;-85
2021/06/30 15:09:43;;;;;;;1.70;1.50;;;27.30;53.60;;;;;;4768168;30;20956;-85
2021/06/30 15:12:53;;;;;;;;;;;;;;;;;;;;;
2021/06/30 15:15:40;;;;;;;2.00;1.20;;;27.30;53.50;;;;;;4752889;30;20539;-85
2021/06/30 15:18:17;;;;;;;3.70;1.30;;;27.30;53.50;;;;;;4845467;29;20427;-84
2021/06/30 15:20:51;;;;;;;1.90;1.30;;;27.30;53.50;;;;;;4843367;29;20435;-84
2021/06/30 15:23:28;;;;;;;1.60;1.30;;;27.30;53.50;;;;;;4874923;29;20435;-84
2021/06/30 15:29:38;;;;;;;1.47;1.30;;;27.30;53.40;;;;;;4913199;29;20421;-84
2021/06/30 15:38:59;;;;;;;2.03;1.03;;;27.30;53.30;;;;;;4857937;29;20501;-84
2021/06/30 15:41:38;;;;;;;1.97;0.97;;;27.30;53.40;;;;;;4842801;29;20489;-84
2021/06/30 15:44:15;;;;;;;2.17;1.00;;;27.30;53.40;;;;;;4842332;29;20464;-84
2021/06/30 15:46:55;;;;;;;1.27;1.10;;;27.30;53.40;;;;;;4857540;29;20407;-83
2021/06/30 15:49:26;;;;;;;1.10;0.90;;;27.30;53.30;;;;;;4858696;29;20435;-83
2021/06/30 15:58:29;;;;;;;2.33;1.00;;;27.30;53.40;;;;;;4859336;29;20429;-83
2021/06/30 16:01:03;;;;;;;1.13;0.87;;;27.20;53.50;;;;;;4844229;29;20424;-85
2021/06/30 16:03:51;;;;;;;1.17;0.97;;;27.10;53.40;;;;;;4848992;29;20432;-84
2021/06/30 16:12:39;;;;;;;2.00;0.90;;;27.20;53.30;;;;;;4901342;29;20400;-84
2021/06/30 16:15:16;;;;;;;1.00;0.80;;;27.10;53.30;;;;;;4916361;29;20463;-84
2021/06/30 16:17:53;;;;;;;1.10;0.90;;;27.20;53.10;;;;;;4915110;29;20484;-84
2021/06/30 16:20:23;;;;;;;1.00;0.90;;;27.10;53.10;;;;;;4915721;29;20459;-83
2021/06/30 16:26:14;;;;;;;1.53;1.00;;;27.20;52.40;;;;;;4919202;29;20396;-83
2021/06/30 16:29:03;;;;;;;;;;;;;;;;;;;;;
2021/06/30 16:31:48;;;;;;;;;;;;;;;;;;;;;
2021/06/30 16:34:20;;;;;;;1.37;0.97;;;27.20;52.50;;;;;;4915941;29;20487;-82
2021/06/30 16:36:53;;;;;;;1.53;0.90;;;27.30;52.50;;;;;;4919884;29;20493;-82
2021/06/30 16:42:51;;;;;;;1.33;0.90;;;27.30;52.60;;;;;;4879509;29;20387;-83
2021/06/30 16:45:47;;;;;;;1.00;0.80;;;27.30;52.70;;;;;;4879486;29;20446;-83
2021/06/30 16:48:34;;;;;;;1.47;0.70;;;27.30;52.80;;;;;;4880106;29;20414;-84
2021/06/30 16:51:02;;;;;;;1.33;0.90;;;27.30;52.40;;;;;;4879706;29;20442;-84
2021/06/30 16:53:30;;;;;;;1.13;0.80;;;27.30;53.00;;;;;;4864180;29;20418;-84
2021/06/30 16:56:00;;;;;;;1.20;0.80;;;27.30;53.00;;;;;;4879354;29;20474;-84
2021/06/30 16:58:29;;;;;;;1.17;0.83;;;27.30;53.00;;;;;;4879209;29;20467;-83
2021/06/30 17:01:03;;;;;;;2.00;0.70;;;27.30;53.10;;;;;;4879685;29;20834;-83
2021/06/30 17:03:59;;;;;;;;;;;;;;;;;;;;;
2021/06/30 17:06:39;;;;;;;3.23;0.87;;;27.40;53.10;;;;;;4880142;29;20441;-83
2021/06/30 17:09:21;;;;;;;1.10;0.80;;;27.40;53.20;;;;;;4880365;29;20450;-84
2021/06/30 17:11:51;;;;;;;1.00;0.80;;;27.40;53.20;;;;;;4880674;29;20426;-83
2021/06/30 17:15:02;;;;;;;1.10;0.90;;;27.40;53.20;;;;;;4879128;29;20988;-83
2021/06/30 17:23:58;;;;;;;1.80;0.80;;;27.40;53.30;;;;;;4919117;29;20388;-82
2021/06/30 17:26:25;;;;;;;1.30;0.93;;;27.40;53.40;;;;;;4902905;29;20452;-83
2021/06/30 17:28:55;;;;;;;1.00;0.80;;;27.40;53.40;;;;;;4918974;29;20982;-83
2021/06/30 17:31:25;;;;;;;0.90;0.70;;;27.40;53.40;;;;;;4919112;29;20432;-83
2021/06/30 17:37:38;;;;;;;;;;;;;;;;;;;;;
2021/06/30 17:40:18;;;;;;;1.20;0.80;;;27.40;53.40;;;;;;4875538;29;20437;-84
2021/06/30 17:49:28;;;;;;;1.07;0.70;;;27.40;53.30;;;;;;4820331;29;20389;-84
2021/06/30 17:52:42;;;;;;;1.20;0.80;;;27.40;53.30;;;;;;4805276;29;20464;-83
2021/06/30 17:55:31;;;;;;;1.20;0.90;;;27.40;53.30;;;;;;4771776;29;20478;-84
2021/06/30 17:58:22;;;;;;;1.70;1.00;;;27.40;53.20;;;;;;4808823;29;20421;-84
2021/06/30 18:00:52;;;;;;;1.20;0.97;;;27.40;53.20;;;;;;4808974;29;20520;-83
2021/06/30 18:03:28;;;;;;;1.00;0.80;;;27.40;53.20;;;;;;4824628;29;20448;-83
2021/06/30 18:06:07;;;;;;;1.17;0.80;;;27.40;53.50;;;;;;4809961;29;20429;-82
2021/06/30 18:08:50;;;;;;;1.00;0.80;;;27.40;53.10;;;;;;4846330;29;20824;-82
2021/06/30 18:11:16;;;;;;;1.10;0.80;;;27.40;53.10;;;;;;4845613;29;20433;-83
2021/06/30 18:14:12;;;;;;;;;;;;;;;;;;;;;
2021/06/30 18:16:52;;;;;;;1.10;0.80;;;27.40;53.10;;;;;;4859896;29;20249;-83
2021/06/30 18:19:56;;;;;;;1.00;0.90;;;27.40;53.10;;;;;;4844576;29;20491;-83
2021/06/30 18:22:34;;;;;;;1.30;1.10;;;27.40;53.00;;;;;;4808338;29;20424;-84
2021/06/30 18:25:11;;;;;;;2.03;1.00;;;27.40;53.10;;;;;;4846402;29;20439;-84
2021/06/30 18:27:40;;;;;;;2.13;1.20;;;27.30;53.10;;;;;;4846641;29;20427;-84
2021/06/30 18:30:31;;;;;;;1.20;1.03;;;27.30;52.90;;;;;;4846404;29;20434;-82
2021/06/30 18:33:25;;;;;;;1.30;1.10;;;27.30;52.80;;;;;;4861065;29;20432;-84
2021/06/30 18:36:02;;;;;;;;;;;;;;;;;;;;;
2021/06/30 18:38:48;;;;;;;;;;;;;;;;;;;;;
2021/06/30 18:41:27;;;;;;;1.00;0.83;;;27.20;52.20;;;;;;4846781;29;20477;-85
2021/06/30 18:44:22;;;;;;;2.37;0.97;;;27.10;51.80;;;;;;4844131;29;20502;-87
2021/06/30 18:50:41;;;;;;;1.30;1.00;;;27.00;51.60;;;;;;4805723;30;20437;-85
2021/06/30 18:53:37;;;;;;;1.17;1.00;;;27.00;51.70;;;;;;4769039;30;20435;-85
2021/06/30 18:56:05;;;;;;;1.40;1.00;;;26.90;51.70;;;;;;4768877;30;20560;-85
2021/06/30 18:58:51;;;;;;;;;;;;;;;;;;;;;
2021/06/30 19:01:23;;;;;;;1.00;0.90;;;26.90;51.80;;;;;;4787725;30;20549;-85
2021/06/30 19:03:53;;;;;;;1.83;1.30;;;26.90;51.80;;;;;;4787193;30;20491;-85
2021/06/30 19:06:57;;;;;;;;;;;;;;;;;;;;;
2021/06/30 19:09:27;;;;;;;1.40;1.00;;;26.80;51.80;;;;;;4786929;30;20466;-84
2021/06/30 19:12:05;;;;;;;1.00;0.90;;;26.80;51.80;;;;;;4787195;30;20427;-84
2021/06/30 19:14:56;;;;;;;1.17;0.97;;;26.80;51.80;;;;;;4771858;30;20430;-85
2021/06/30 19:17:39;;;;;;;;;;;;;;;;;;;;;
2021/06/30 19:20:11;;;;;;;1.50;1.27;;;26.80;51.80;;;;;;4790540;30;20431;-84
2021/06/30 19:22:58;;;;;;;1.60;1.30;;;26.80;51.80;;;;;;4785786;29;20420;-84
2021/06/30 19:25:34;;;;;;;1.77;1.10;;;26.80;51.80;;;;;;4842215;29;20424;-84
2021/06/30 19:28:03;;;;;;;1.00;0.90;;;26.80;52.00;;;;;;4914153;29;20423;-84
2021/06/30 19:30:40;;;;;;;1.00;0.90;;;26.70;51.90;;;;;;4917064;29;20408;-84
2021/06/30 19:33:14;;;;;;;1.00;0.80;;;26.70;51.90;;;;;;4917866;29;20412;-84
2021/06/30 19:36:12;;;;;;;1.20;0.90;;;26.80;51.90;;;;;;4901251;29;20499;-84
2021/06/30 19:38:45;;;;;;;3.83;0.93;;;26.70;51.80;;;;;;4902128;29;20417;-84
2021/06/30 19:47:57;;;;;;;1.10;0.90;;;26.70;52.00;;;;;;4917785;29;20401;-84
2021/06/30 19:50:27;;;;;;;1.17;1.00;;;26.70;52.10;;;;;;4917533;29;20753;-84
2021/06/30 19:52:55;;;;;;;1.30;1.00;;;26.70;52.00;;;;;;4916057;29;20444;-84
2021/06/30 19:55:33;;;;;;;1.03;0.90;;;26.70;52.00;;;;;;4900646;29;20464;-84
2021/06/30 20:04:59;;;;;;;2.30;0.97;;;26.70;52.10;;;;;;4895541;29;20404;-84
2021/06/30 20:10:35;;;;;;;1.60;1.50;;;26.60;52.10;;;;;;4875517;29;20437;-84
2021/06/30 20:13:15;;;;;;;1.20;0.90;;;26.60;52.20;;;;;;4882372;29;20434;-83
2021/06/30 20:15:48;;;;;;;1.27;0.87;;;26.60;52.10;;;;;;4881647;29;20511;-83
2021/06/30 20:25:05;;;;;;;1.40;1.00;;;26.50;52.10;;;;;;4862206;29;20534;-84
2021/06/30 20:27:35;;;;;;;1.90;1.00;;;26.50;52.20;;;;;;4862865;29;20416;-84
2021/06/30 20:30:10;;;;;;;1.30;1.20;;;26.50;52.20;;;;;;4846874;29;20470;-84
2021/06/30 20:32:45;;;;;;;1.63;1.00;;;26.50;52.70;;;;;;4863127;29;20429;-84
2021/06/30 20:35:18;;;;;;;1.30;0.97;;;26.50;52.20;;;;;;4865698;29;20544;-84
2021/06/30 20:37:48;;;;;;;4.77;1.37;;;26.50;52.30;;;;;;4879377;29;20455;-84